sensor_id;sensor_type;location;lat;lon;timestamp;pressure;altitude;pressure_sealevel;temperature;humidity
57248;BME280;55809;46.618;10.764;2023-10-19T00:01:42;92373.88;;;9.28;100.00
57248;BME280;55809;46.618;10.764;2023-10-19T00:04:08;92369.34;;;9.25;100.00
57248;BME280;55809;46.618;10.764;2023-10-19T00:06:35;92373.88;;;9.28;100.00
57248;BME280;55809;46.618;10.764;2023-10-19T00:09:06;92372.31;;;9.30;100.00
57248;BME280;55809;46.618;10.764;2023-10-19T00:11:36;92364.19;;;9.34;100.00
57248;BME280;55809;46.618;10.764;2023-10-19T00:14:05;92369.53;;;9.37;100.00
57248;BME280;55809;46.618;10.764;2023-10-19T00:16:40;92357.09;;;9.47;100.00
57248;BME280;55809;46.618;10.764;2023-10-19T00:19:09;92361.34;;;9.48;100.00
57248;BME280;55809;46.618;10.764;2023-10-19T00:21:35;92361.34;;;9.48;100.00
57248;BME280;55809;46.618;10.764;2023-10-19T00:24:17;92345.56;;;9.47;100.00
57248;BME280;55809;46.618;10.764;2023-10-19T00:26:45;92344.44;;;9.44;100.00
57248;BME280;55809;46.618;10.764;2023-10-19T00:29:10;92342.94;;;9.43;100.00
57248;BME280;55809;46.618;10.764;2023-10-19T00:31:55;92339.06;;;9.44;100.00
57248;BME280;55809;46.618;10.764;2023-10-19T00:34:23;92332.78;;;9.54;100.00
57248;BME280;55809;46.618;10.764;2023-10-19T00:36:50;92331.72;;;9.48;100.00
57248;BME280;55809;46.618;10.764;2023-10-19T00:39:18;92328.34;;;9.40;100.00
57248;BME280;55809;46.618;10.764;2023-10-19T00:41:49;92316.47;;;9.38;100.00
57248;BME280;55809;46.618;10.764;2023-10-19T00:44:21;92313.44;;;9.32;100.00
57248;BME280;55809;46.618;10.764;2023-10-19T00:47:01;92310.03;;;9.28;100.00
57248;BME280;55809;46.618;10.764;2023-10-19T00:49:28;92310.03;;;9.28;100.00
57248;BME280;55809;46.618;10.764;2023-10-19T00:51:55;92300.78;;;9.29;100.00
57248;BME280;55809;46.618;10.764;2023-10-19T00:54:30;92288.84;;;9.30;100.00
57248;BME280;55809;46.618;10.764;2023-10-19T00:57:06;92290.28;;;9.38;100.00
57248;BME280;55809;46.618;10.764;2023-10-19T00:59:33;92293.25;;;9.48;100.00
57248;BME280;55809;46.618;10.764;2023-10-19T01:02:04;92301.00;;;9.42;100.00
57248;BME280;55809;46.618;10.764;2023-10-19T01:04:42;92307.19;;;9.39;100.00
57248;BME280;55809;46.618;10.764;2023-10-19T01:07:12;92301.88;;;9.35;100.00
57248;BME280;55809;46.618;10.764;2023-10-19T01:09:43;92303.44;;;9.33;100.00
57248;BME280;55809;46.618;10.764;2023-10-19T01:12:11;92300.31;;;9.38;100.00
57248;BME280;55809;46.618;10.764;2023-10-19T01:17:32;92278.75;;;9.38;100.00
57248;BME280;55809;46.618;10.764;2023-10-19T01:20:04;92278.75;;;9.38;100.00
57248;BME280;55809;46.618;10.764;2023-10-19T01:22:45;92277.94;;;9.41;100.00
57248;BME280;55809;46.618;10.764;2023-10-19T01:25:12;92267.13;;;9.45;100.00
57248;BME280;55809;46.618;10.764;2023-10-19T01:27:45;92262.78;;;9.51;100.00
57248;BME280;55809;46.618;10.764;2023-10-19T01:30:12;92269.16;;;9.60;100.00
57248;BME280;55809;46.618;10.764;2023-10-19T01:32:42;92263.78;;;9.60;100.00
57248;BME280;55809;46.618;10.764;2023-10-19T01:35:08;92253.75;;;9.65;100.00
57248;BME280;55809;46.618;10.764;2023-10-19T01:37:36;92256.19;;;9.55;100.00
57248;BME280;55809;46.618;10.764;2023-10-19T01:40:05;92251.72;;;9.45;100.00
57248;BME280;55809;46.618;10.764;2023-10-19T01:42:32;92257.66;;;9.33;100.00
57248;BME280;55809;46.618;10.764;2023-10-19T01:44:57;92253.22;;;9.19;100.00
57248;BME280;55809;46.618;10.764;2023-10-19T01:47:24;92247.47;;;9.17;100.00
57248;BME280;55809;46.618;10.764;2023-10-19T01:49:50;92240.31;;;9.07;100.00
57248;BME280;55809;46.618;10.764;2023-10-19T01:52:17;92236.91;;;9.03;100.00
57248;BME280;55809;46.618;10.764;2023-10-19T01:54:43;92236.22;;;8.99;100.00
57248;BME280;55809;46.618;10.764;2023-10-19T01:57:11;92229.19;;;9.05;100.00
57248;BME280;55809;46.618;10.764;2023-10-19T01:59:39;92230.56;;;9.16;100.00
57248;BME280;55809;46.618;10.764;2023-10-19T02:02:09;92218.13;;;9.26;100.00
57248;BME280;55809;46.618;10.764;2023-10-19T02:04:35;92218.69;;;9.41;100.00
57248;BME280;55809;46.618;10.764;2023-10-19T02:07:02;92225.97;;;9.40;100.00
57248;BME280;55809;46.618;10.764;2023-10-19T02:09:28;92218.00;;;9.33;100.00
57248;BME280;55809;46.618;10.764;2023-10-19T02:11:58;92219.69;;;9.24;100.00
57248;BME280;55809;46.618;10.764;2023-10-19T02:14:25;92209.78;;;9.17;100.00
57248;BME280;55809;46.618;10.764;2023-10-19T02:16:54;92204.47;;;9.13;100.00
57248;BME280;55809;46.618;10.764;2023-10-19T02:19:22;92201.38;;;9.15;100.00
57248;BME280;55809;46.618;10.764;2023-10-19T02:21:50;92197.09;;;9.18;100.00
57248;BME280;55809;46.618;10.764;2023-10-19T02:24:17;92188.63;;;9.19;100.00
57248;BME280;55809;46.618;10.764;2023-10-19T02:26:44;92186.63;;;9.23;100.00
57248;BME280;55809;46.618;10.764;2023-10-19T02:29:11;92179.66;;;9.26;100.00
57248;BME280;55809;46.618;10.764;2023-10-19T02:31:40;92180.06;;;9.24;100.00
57248;BME280;55809;46.618;10.764;2023-10-19T02:34:06;92187.69;;;9.29;100.00
57248;BME280;55809;46.618;10.764;2023-10-19T02:36:35;92184.53;;;9.34;100.00
57248;BME280;55809;46.618;10.764;2023-10-19T02:39:03;92183.25;;;9.43;100.00
57248;BME280;55809;46.618;10.764;2023-10-19T02:41:32;92177.44;;;9.44;100.00
57248;BME280;55809;46.618;10.764;2023-10-19T02:44:00;92184.00;;;9.43;100.00
57248;BME280;55809;46.618;10.764;2023-10-19T02:46:34;92176.34;;;9.42;100.00
57248;BME280;55809;46.618;10.764;2023-10-19T02:49:01;92170.22;;;9.41;100.00
57248;BME280;55809;46.618;10.764;2023-10-19T02:51:28;92172.06;;;9.44;100.00
57248;BME280;55809;46.618;10.764;2023-10-19T02:53:55;92163.22;;;9.44;100.00
57248;BME280;55809;46.618;10.764;2023-10-19T02:56:21;92162.53;;;9.39;100.00
57248;BME280;55809;46.618;10.764;2023-10-19T02:58:49;92157.50;;;9.42;100.00
57248;BME280;55809;46.618;10.764;2023-10-19T03:01:16;92161.00;;;9.38;100.00
57248;BME280;55809;46.618;10.764;2023-10-19T03:03:47;92159.47;;;9.37;100.00
57248;BME280;55809;46.618;10.764;2023-10-19T03:06:16;92155.19;;;9.40;100.00
57248;BME280;55809;46.618;10.764;2023-10-19T03:08:44;92142.72;;;9.50;100.00
57248;BME280;55809;46.618;10.764;2023-10-19T03:11:11;92143.09;;;9.52;100.00
57248;BME280;55809;46.618;10.764;2023-10-19T03:13:39;92142.44;;;9.44;100.00
57248;BME280;55809;46.618;10.764;2023-10-19T03:16:06;92135.06;;;9.48;100.00
57248;BME280;55809;46.618;10.764;2023-10-19T03:18:34;92136.81;;;9.58;100.00
57248;BME280;55809;46.618;10.764;2023-10-19T03:21:00;92132.56;;;9.61;100.00
57248;BME280;55809;46.618;10.764;2023-10-19T03:23:28;92134.88;;;9.59;100.00
57248;BME280;55809;46.618;10.764;2023-10-19T03:25:54;92140.47;;;9.48;100.00
57248;BME280;55809;46.618;10.764;2023-10-19T03:28:37;92143.59;;;9.43;100.00
57248;BME280;55809;46.618;10.764;2023-10-19T03:31:06;92138.03;;;9.30;100.00
57248;BME280;55809;46.618;10.764;2023-10-19T03:33:32;92136.66;;;9.22;100.00
57248;BME280;55809;46.618;10.764;2023-10-19T03:36:01;92135.53;;;9.20;100.00
57248;BME280;55809;46.618;10.764;2023-10-19T03:38:30;92128.75;;;9.11;100.00
57248;BME280;55809;46.618;10.764;2023-10-19T03:41:02;92131.47;;;9.08;100.00
57248;BME280;55809;46.618;10.764;2023-10-19T03:43:32;92119.19;;;9.07;100.00
57248;BME280;55809;46.618;10.764;2023-10-19T03:46:01;92123.00;;;9.09;100.00
57248;BME280;55809;46.618;10.764;2023-10-19T03:48:31;92121.38;;;9.15;100.00
57248;BME280;55809;46.618;10.764;2023-10-19T03:51:03;92121.59;;;9.25;100.00
57248;BME280;55809;46.618;10.764;2023-10-19T03:53:32;92119.66;;;9.25;100.00
57248;BME280;55809;46.618;10.764;2023-10-19T03:56:03;92112.03;;;9.20;100.00
57248;BME280;55809;46.618;10.764;2023-10-19T03:58:35;92122.06;;;9.20;100.00
57248;BME280;55809;46.618;10.764;2023-10-19T04:01:04;92117.78;;;9.22;100.00
57248;BME280;55809;46.618;10.764;2023-10-19T04:03:31;92113.28;;;9.39;100.00
57248;BME280;55809;46.618;10.764;2023-10-19T04:05:57;92114.28;;;9.25;100.00
57248;BME280;55809;46.618;10.764;2023-10-19T04:08:28;92110.22;;;9.13;100.00
57248;BME280;55809;46.618;10.764;2023-10-19T04:11:01;92101.41;;;9.13;100.00
57248;BME280;55809;46.618;10.764;2023-10-19T04:13:37;92103.28;;;9.16;100.00
57248;BME280;55809;46.618;10.764;2023-10-19T04:16:05;92091.28;;;9.21;100.00
57248;BME280;55809;46.618;10.764;2023-10-19T04:18:35;92085.50;;;9.22;100.00
57248;BME280;55809;46.618;10.764;2023-10-19T04:21:08;92080.56;;;9.17;100.00
57248;BME280;55809;46.618;10.764;2023-10-19T04:23:35;92080.50;;;9.21;100.00
57248;BME280;55809;46.618;10.764;2023-10-19T04:26:03;92077.00;;;9.24;100.00
57248;BME280;55809;46.618;10.764;2023-10-19T04:28:36;92077.09;;;9.16;100.00
57248;BME280;55809;46.618;10.764;2023-10-19T04:31:07;92071.72;;;9.16;100.00
57248;BME280;55809;46.618;10.764;2023-10-19T04:33:38;92067.84;;;9.18;100.00
57248;BME280;55809;46.618;10.764;2023-10-19T04:36:07;92063.25;;;9.18;100.00
57248;BME280;55809;46.618;10.764;2023-10-19T04:38:36;92068.22;;;9.20;100.00
57248;BME280;55809;46.618;10.764;2023-10-19T04:41:05;92064.22;;;9.28;100.00
57248;BME280;55809;46.618;10.764;2023-10-19T04:43:34;92060.88;;;9.44;100.00
57248;BME280;55809;46.618;10.764;2023-10-19T04:46:04;92061.78;;;9.57;100.00
57248;BME280;55809;46.618;10.764;2023-10-19T04:48:33;92052.19;;;9.56;100.00
57248;BME280;55809;46.618;10.764;2023-10-19T04:51:01;92054.34;;;9.65;100.00
57248;BME280;55809;46.618;10.764;2023-10-19T04:53:28;92053.31;;;9.58;100.00
57248;BME280;55809;46.618;10.764;2023-10-19T04:55:55;92041.78;;;9.58;100.00
57248;BME280;55809;46.618;10.764;2023-10-19T04:58:24;92038.88;;;9.49;100.00
57248;BME280;55809;46.618;10.764;2023-10-19T05:00:52;92035.47;;;9.45;100.00
57248;BME280;55809;46.618;10.764;2023-10-19T05:03:19;92037.06;;;9.42;100.00
57248;BME280;55809;46.618;10.764;2023-10-19T05:05:46;92033.25;;;9.39;100.00
57248;BME280;55809;46.618;10.764;2023-10-19T05:08:13;92029.38;;;9.40;100.00
57248;BME280;55809;46.618;10.764;2023-10-19T05:10:40;92028.97;;;9.42;100.00
57248;BME280;55809;46.618;10.764;2023-10-19T05:13:07;92026.34;;;9.38;100.00
57248;BME280;55809;46.618;10.764;2023-10-19T05:15:36;92023.22;;;9.40;100.00
57248;BME280;55809;46.618;10.764;2023-10-19T05:18:04;92012.38;;;9.44;100.00
57248;BME280;55809;46.618;10.764;2023-10-19T05:20:31;92015.81;;;9.48;100.00
57248;BME280;55809;46.618;10.764;2023-10-19T05:22:58;92011.16;;;9.48;100.00
57248;BME280;55809;46.618;10.764;2023-10-19T05:25:26;92012.22;;;9.54;100.00
57248;BME280;55809;46.618;10.764;2023-10-19T05:27:52;92011.44;;;9.54;100.00
57248;BME280;55809;46.618;10.764;2023-10-19T05:30:19;92011.44;;;9.54;100.00
57248;BME280;55809;46.618;10.764;2023-10-19T05:32:49;92009.53;;;9.54;100.00
57248;BME280;55809;46.618;10.764;2023-10-19T05:35:18;92003.69;;;9.56;100.00
57248;BME280;55809;46.618;10.764;2023-10-19T05:37:51;92000.78;;;9.47;100.00
57248;BME280;55809;46.618;10.764;2023-10-19T05:40:18;91997.88;;;9.37;100.00
57248;BME280;55809;46.618;10.764;2023-10-19T05:42:44;92010.31;;;9.31;100.00
57248;BME280;55809;46.618;10.764;2023-10-19T05:45:12;92018.81;;;9.30;100.00
57248;BME280;55809;46.618;10.764;2023-10-19T05:47:41;92017.63;;;9.31;100.00
57248;BME280;55809;46.618;10.764;2023-10-19T05:50:11;92029.94;;;9.32;100.00
57248;BME280;55809;46.618;10.764;2023-10-19T05:52:39;92037.13;;;9.38;100.00
57248;BME280;55809;46.618;10.764;2023-10-19T05:55:08;92037.81;;;9.43;100.00
57248;BME280;55809;46.618;10.764;2023-10-19T05:57:39;92037.97;;;9.55;100.00
57248;BME280;55809;46.618;10.764;2023-10-19T06:00:07;92041.72;;;9.61;100.00
57248;BME280;55809;46.618;10.764;2023-10-19T06:02:37;92034.38;;;9.62;100.00
57248;BME280;55809;46.618;10.764;2023-10-19T06:05:04;92031.81;;;9.55;100.00
57248;BME280;55809;46.618;10.764;2023-10-19T06:07:33;92025.84;;;9.44;100.00
57248;BME280;55809;46.618;10.764;2023-10-19T06:10:00;92026.00;;;9.36;100.00
57248;BME280;55809;46.618;10.764;2023-10-19T06:12:30;92020.38;;;9.27;100.00
57248;BME280;55809;46.618;10.764;2023-10-19T06:14:56;92030.25;;;9.34;100.00
57248;BME280;55809;46.618;10.764;2023-10-19T06:17:23;92028.16;;;9.45;100.00
57248;BME280;55809;46.618;10.764;2023-10-19T06:19:51;92024.41;;;9.39;100.00
57248;BME280;55809;46.618;10.764;2023-10-19T06:22:18;92026.34;;;9.38;100.00
57248;BME280;55809;46.618;10.764;2023-10-19T06:24:46;92021.03;;;9.35;100.00
57248;BME280;55809;46.618;10.764;2023-10-19T06:27:13;92014.81;;;9.38;100.00
57248;BME280;55809;46.618;10.764;2023-10-19T06:29:40;92013.22;;;9.40;100.00
57248;BME280;55809;46.618;10.764;2023-10-19T06:32:08;92014.03;;;9.37;100.00
57248;BME280;55809;46.618;10.764;2023-10-19T06:34:34;92007.41;;;9.22;100.00
57248;BME280;55809;46.618;10.764;2023-10-19T06:37:02;92011.81;;;9.12;100.00
57248;BME280;55809;46.618;10.764;2023-10-19T06:39:29;92011.16;;;9.05;100.00
57248;BME280;55809;46.618;10.764;2023-10-19T06:41:57;92021.47;;;9.10;100.00
57248;BME280;55809;46.618;10.764;2023-10-19T06:44:24;92032.78;;;9.21;100.00
57248;BME280;55809;46.618;10.764;2023-10-19T06:46:50;92028.00;;;9.32;100.00
57248;BME280;55809;46.618;10.764;2023-10-19T06:49:17;92033.31;;;9.36;100.00
57248;BME280;55809;46.618;10.764;2023-10-19T06:51:44;92032.84;;;9.41;100.00
57248;BME280;55809;46.618;10.764;2023-10-19T06:54:11;92033.25;;;9.39;100.00
57248;BME280;55809;46.618;10.764;2023-10-19T06:56:38;92025.53;;;9.42;100.00
57248;BME280;55809;46.618;10.764;2023-10-19T06:59:08;92019.88;;;9.56;100.00
57248;BME280;55809;46.618;10.764;2023-10-19T07:01:35;92010.53;;;9.40;100.00
57248;BME280;55809;46.618;10.764;2023-10-19T07:04:01;91992.56;;;9.34;100.00
57248;BME280;55809;46.618;10.764;2023-10-19T07:06:28;91988.50;;;9.46;100.00
57248;BME280;55809;46.618;10.764;2023-10-19T07:08:56;91993.97;;;9.62;100.00
57248;BME280;55809;46.618;10.764;2023-10-19T07:11:23;91989.47;;;9.75;100.00
57248;BME280;55809;46.618;10.764;2023-10-19T07:13:50;91993.47;;;9.67;100.00
57248;BME280;55809;46.618;10.764;2023-10-19T07:16:18;91994.72;;;9.62;100.00
57248;BME280;55809;46.618;10.764;2023-10-19T07:18:45;91992.63;;;9.70;100.00
57248;BME280;55809;46.618;10.764;2023-10-19T07:21:12;91996.09;;;9.51;100.00
57248;BME280;55809;46.618;10.764;2023-10-19T07:23:39;91990.50;;;9.42;100.00
57248;BME280;55809;46.618;10.764;2023-10-19T07:26:05;91986.03;;;9.35;100.00
57248;BME280;55809;46.618;10.764;2023-10-19T07:28:32;91974.91;;;9.33;100.00
57248;BME280;55809;46.618;10.764;2023-10-19T07:31:00;91980.34;;;9.29;100.00
57248;BME280;55809;46.618;10.764;2023-10-19T07:33:28;91981.03;;;9.33;100.00
57248;BME280;55809;46.618;10.764;2023-10-19T07:35:55;91972.88;;;9.37;100.00
57248;BME280;55809;46.618;10.764;2023-10-19T07:38:25;91971.31;;;9.59;100.00
57248;BME280;55809;46.618;10.764;2023-10-19T07:40:53;91976.00;;;9.55;100.00
57248;BME280;55809;46.618;10.764;2023-10-19T07:43:20;91970.91;;;9.41;100.00
57248;BME280;55809;46.618;10.764;2023-10-19T07:45:47;91987.25;;;9.50;100.00
57248;BME280;55809;46.618;10.764;2023-10-19T07:48:14;91989.94;;;9.50;100.00
57248;BME280;55809;46.618;10.764;2023-10-19T07:50:44;91988.44;;;9.49;100.00
57248;BME280;55809;46.618;10.764;2023-10-19T07:53:12;91985.69;;;9.53;100.00
57248;BME280;55809;46.618;10.764;2023-10-19T07:55:39;91976.91;;;9.69;100.00
57248;BME280;55809;46.618;10.764;2023-10-19T07:58:06;91976.28;;;9.61;100.00
57248;BME280;55809;46.618;10.764;2023-10-19T08:00:34;91967.78;;;9.62;100.00
57248;BME280;55809;46.618;10.764;2023-10-19T08:03:01;91961.13;;;9.67;100.00
57248;BME280;55809;46.618;10.764;2023-10-19T08:05:29;91965.00;;;9.66;100.00
57248;BME280;55809;46.618;10.764;2023-10-19T08:07:58;91971.50;;;9.69;100.00
57248;BME280;55809;46.618;10.764;2023-10-19T08:10:29;91974.81;;;9.76;100.00
57248;BME280;55809;46.618;10.764;2023-10-19T08:12:56;91973.16;;;9.82;100.00
57248;BME280;55809;46.618;10.764;2023-10-19T08:15:24;91986.91;;;9.88;100.00
57248;BME280;55809;46.618;10.764;2023-10-19T08:17:52;91990.56;;;9.98;100.00
57248;BME280;55809;46.618;10.764;2023-10-19T08:20:20;91982.41;;;10.01;100.00
57248;BME280;55809;46.618;10.764;2023-10-19T08:22:56;91984.25;;;10.04;100.00
57248;BME280;55809;46.618;10.764;2023-10-19T08:25:25;91970.50;;;9.99;100.00
57248;BME280;55809;46.618;10.764;2023-10-19T08:27:53;91956.63;;;10.00;100.00
57248;BME280;55809;46.618;10.764;2023-10-19T08:30:22;91946.41;;;9.92;100.00
57248;BME280;55809;46.618;10.764;2023-10-19T08:32:50;91947.59;;;9.91;100.00
57248;BME280;55809;46.618;10.764;2023-10-19T08:35:19;91937.63;;;9.88;100.00
57248;BME280;55809;46.618;10.764;2023-10-19T08:37:49;91920.84;;;9.80;100.00
57248;BME280;55809;46.618;10.764;2023-10-19T08:40:16;91919.25;;;9.82;100.00
57248;BME280;55809;46.618;10.764;2023-10-19T08:42:46;91924.56;;;9.86;100.00
57248;BME280;55809;46.618;10.764;2023-10-19T08:45:13;91927.69;;;9.84;100.00
57248;BME280;55809;46.618;10.764;2023-10-19T08:47:43;91918.00;;;9.87;100.00
57248;BME280;55809;46.618;10.764;2023-10-19T08:50:12;91929.66;;;10.00;100.00
57248;BME280;55809;46.618;10.764;2023-10-19T08:52:40;91931.50;;;10.03;100.00
57248;BME280;55809;46.618;10.764;2023-10-19T08:55:08;91930.63;;;9.90;100.00
57248;BME280;55809;46.618;10.764;2023-10-19T08:57:38;91924.03;;;9.75;100.00
57248;BME280;55809;46.618;10.764;2023-10-19T09:00:09;91920.59;;;9.74;100.00
57248;BME280;55809;46.618;10.764;2023-10-19T09:02:36;91921.28;;;9.78;100.00
57248;BME280;55809;46.618;10.764;2023-10-19T09:05:06;91926.31;;;9.76;100.00
57248;BME280;55809;46.618;10.764;2023-10-19T09:07:34;91907.81;;;9.78;100.00
57248;BME280;55809;46.618;10.764;2023-10-19T09:10:00;91905.50;;;9.77;100.00
57248;BME280;55809;46.618;10.764;2023-10-19T09:12:30;91892.03;;;9.77;100.00
57248;BME280;55809;46.618;10.764;2023-10-19T09:14:57;91888.44;;;9.83;100.00
57248;BME280;55809;46.618;10.764;2023-10-19T09:17:29;91887.50;;;9.90;100.00
57248;BME280;55809;46.618;10.764;2023-10-19T09:19:57;91884.41;;;9.92;100.00
57248;BME280;55809;46.618;10.764;2023-10-19T09:22:34;91889.81;;;9.92;100.00
57248;BME280;55809;46.618;10.764;2023-10-19T09:25:03;91892.34;;;9.99;100.00
57248;BME280;55809;46.618;10.764;2023-10-19T09:27:32;91896.72;;;10.09;100.00
57248;BME280;55809;46.618;10.764;2023-10-19T09:30:00;91879.44;;;10.06;100.00
57248;BME280;55809;46.618;10.764;2023-10-19T09:32:30;91877.84;;;10.09;100.00
57248;BME280;55809;46.618;10.764;2023-10-19T09:34:58;91870.59;;;10.06;100.00
57248;BME280;55809;46.618;10.764;2023-10-19T09:37:25;91867.72;;;10.13;100.00
57248;BME280;55809;46.618;10.764;2023-10-19T09:39:51;91872.38;;;10.13;100.00
57248;BME280;55809;46.618;10.764;2023-10-19T09:42:18;91876.00;;;10.06;100.00
57248;BME280;55809;46.618;10.764;2023-10-19T09:44:52;91872.44;;;9.93;100.00
57248;BME280;55809;46.618;10.764;2023-10-19T09:47:22;91870.59;;;9.90;100.00
57248;BME280;55809;46.618;10.764;2023-10-19T09:49:55;91872.13;;;9.91;100.00
57248;BME280;55809;46.618;10.764;2023-10-19T09:52:24;91877.75;;;9.96;100.00
57248;BME280;55809;46.618;10.764;2023-10-19T09:54:52;91881.28;;;9.93;100.00
57248;BME280;55809;46.618;10.764;2023-10-19T09:57:25;91879.28;;;9.97;100.00
57248;BME280;55809;46.618;10.764;2023-10-19T09:59:56;91872.63;;;10.02;100.00
57248;BME280;55809;46.618;10.764;2023-10-19T10:02:24;91868.66;;;10.06;100.00
57248;BME280;55809;46.618;10.764;2023-10-19T10:04:57;91878.94;;;10.12;100.00
57248;BME280;55809;46.618;10.764;2023-10-19T10:07:24;91870.78;;;10.15;100.00
57248;BME280;55809;46.618;10.764;2023-10-19T10:09:53;91857.66;;;10.33;100.00
57248;BME280;55809;46.618;10.764;2023-10-19T10:12:21;91851.75;;;10.39;100.00
57248;BME280;55809;46.618;10.764;2023-10-19T10:14:58;91862.97;;;10.37;100.00
57248;BME280;55809;46.618;10.764;2023-10-19T10:17:26;91863.38;;;10.36;100.00
57248;BME280;55809;46.618;10.764;2023-10-19T10:19:56;91871.06;;;10.37;100.00
57248;BME280;55809;46.618;10.764;2023-10-19T10:22:25;91866.50;;;10.34;100.00
57248;BME280;55809;46.618;10.764;2023-10-19T10:24:55;91854.28;;;10.29;100.00
57248;BME280;55809;46.618;10.764;2023-10-19T10:27:22;91839.75;;;10.40;100.00
57248;BME280;55809;46.618;10.764;2023-10-19T10:29:55;91842.97;;;10.51;100.00
57248;BME280;55809;46.618;10.764;2023-10-19T10:38:00;91819.34;;;10.55;100.00
57248;BME280;55809;46.618;10.764;2023-10-19T10:40:28;91831.09;;;10.48;100.00
57248;BME280;55809;46.618;10.764;2023-10-19T10:43:04;91829.97;;;10.46;100.00
57248;BME280;55809;46.618;10.764;2023-10-19T10:45:31;91829.47;;;10.51;100.00
57248;BME280;55809;46.618;10.764;2023-10-19T10:47:58;91820.16;;;10.68;100.00
57248;BME280;55809;46.618;10.764;2023-10-19T10:50:26;91815.81;;;10.58;100.00
57248;BME280;55809;46.618;10.764;2023-10-19T10:52:53;91827.78;;;10.57;100.00
57248;BME280;55809;46.618;10.764;2023-10-19T10:55:24;91828.06;;;10.46;100.00
57248;BME280;55809;46.618;10.764;2023-10-19T10:57:52;91820.13;;;10.39;100.00
57248;BME280;55809;46.618;10.764;2023-10-19T11:00:19;91809.03;;;10.37;100.00
57248;BME280;55809;46.618;10.764;2023-10-19T11:03:00;91812.09;;;10.52;100.00
57248;BME280;55809;46.618;10.764;2023-10-19T11:05:28;91815.06;;;10.57;100.00
57248;BME280;55809;46.618;10.764;2023-10-19T11:08:03;91797.09;;;10.51;100.00
57248;BME280;55809;46.618;10.764;2023-10-19T11:10:32;91792.06;;;10.53;100.00
57248;BME280;55809;46.618;10.764;2023-10-19T11:13:00;91784.13;;;10.46;100.00
57248;BME280;55809;46.618;10.764;2023-10-19T11:15:26;91770.31;;;10.44;100.00
57248;BME280;55809;46.618;10.764;2023-10-19T11:17:53;91763.31;;;10.46;100.00
57248;BME280;55809;46.618;10.764;2023-10-19T11:20:21;91756.31;;;10.49;100.00
57248;BME280;55809;46.618;10.764;2023-10-19T11:22:48;91771.22;;;10.53;100.00
57248;BME280;55809;46.618;10.764;2023-10-19T11:25:18;91761.84;;;10.58;100.00
57248;BME280;55809;46.618;10.764;2023-10-19T11:27:47;91758.63;;;10.63;100.00
57248;BME280;55809;46.618;10.764;2023-10-19T11:30:14;91750.84;;;10.65;100.00
57248;BME280;55809;46.618;10.764;2023-10-19T11:32:48;91755.94;;;10.63;100.00
57248;BME280;55809;46.618;10.764;2023-10-19T11:35:18;91762.50;;;10.62;100.00
57248;BME280;55809;46.618;10.764;2023-10-19T11:37:48;91753.91;;;10.67;100.00
57248;BME280;55809;46.618;10.764;2023-10-19T11:40:15;91753.78;;;10.71;100.00
57248;BME280;55809;46.618;10.764;2023-10-19T11:42:42;91757.47;;;10.77;100.00
57248;BME280;55809;46.618;10.764;2023-10-19T11:45:10;91755.78;;;10.83;100.00
57248;BME280;55809;46.618;10.764;2023-10-19T11:47:37;91754.25;;;10.82;100.00
57248;BME280;55809;46.618;10.764;2023-10-19T11:50:04;91741.44;;;10.86;100.00
57248;BME280;55809;46.618;10.764;2023-10-19T11:52:31;91738.84;;;10.83;100.00
57248;BME280;55809;46.618;10.764;2023-10-19T11:54:58;91737.19;;;10.85;100.00
57248;BME280;55809;46.618;10.764;2023-10-19T11:57:25;91727.34;;;10.78;100.00
57248;BME280;55809;46.618;10.764;2023-10-19T11:59:52;91731.03;;;10.85;100.00
57248;BME280;55809;46.618;10.764;2023-10-19T12:02:20;91737.63;;;10.84;100.00
57248;BME280;55809;46.618;10.764;2023-10-19T12:04:47;91734.38;;;10.76;100.00
57248;BME280;55809;46.618;10.764;2023-10-19T12:07:14;91723.34;;;10.70;100.00
57248;BME280;55809;46.618;10.764;2023-10-19T12:09:40;91721.94;;;10.66;100.00
57248;BME280;55809;46.618;10.764;2023-10-19T12:12:07;91721.50;;;10.67;100.00
57248;BME280;55809;46.618;10.764;2023-10-19T12:14:34;91721.81;;;10.69;100.00
57248;BME280;55809;46.618;10.764;2023-10-19T12:17:01;91722.16;;;10.71;100.00
57248;BME280;55809;46.618;10.764;2023-10-19T12:19:29;91715.66;;;10.69;100.00
57248;BME280;55809;46.618;10.764;2023-10-19T12:21:56;91712.13;;;10.72;100.00
57248;BME280;55809;46.618;10.764;2023-10-19T12:24:23;91708.66;;;10.71;100.00
57248;BME280;55809;46.618;10.764;2023-10-19T12:26:53;91705.88;;;10.75;100.00
57248;BME280;55809;46.618;10.764;2023-10-19T12:29:20;91693.66;;;10.70;100.00
57248;BME280;55809;46.618;10.764;2023-10-19T12:31:47;91684.38;;;10.71;100.00
57248;BME280;55809;46.618;10.764;2023-10-19T12:34:13;91675.19;;;10.69;100.00
57248;BME280;55809;46.618;10.764;2023-10-19T12:36:43;91665.25;;;10.66;100.00
57248;BME280;55809;46.618;10.764;2023-10-19T12:39:11;91673.03;;;10.64;100.00
57248;BME280;55809;46.618;10.764;2023-10-19T12:41:59;91673.25;;;10.69;100.00
57248;BME280;55809;46.618;10.764;2023-10-19T12:44:26;91661.59;;;10.72;100.00
57248;BME280;55809;46.618;10.764;2023-10-19T12:46:55;91661.06;;;10.65;100.00
57248;BME280;55809;46.618;10.764;2023-10-19T12:49:22;91675.94;;;10.69;100.00
57248;BME280;55809;46.618;10.764;2023-10-19T12:51:52;91695.41;;;10.77;100.00
57248;BME280;55809;46.618;10.764;2023-10-19T12:54:19;91707.16;;;10.70;100.00
57248;BME280;55809;46.618;10.764;2023-10-19T12:56:46;91713.19;;;10.62;100.00
57248;BME280;55809;46.618;10.764;2023-10-19T12:59:15;91709.06;;;10.57;100.00
57248;BME280;55809;46.618;10.764;2023-10-19T13:01:43;91690.94;;;10.57;100.00
57248;BME280;55809;46.618;10.764;2023-10-19T13:04:13;91697.94;;;10.55;100.00